createdAt,value
2023-03-21T00:00:39.855Z,8.18
2023-03-21T00:04:22.834Z,8.15
2023-03-21T00:07:49.929Z,8.11
2023-03-21T00:11:17.291Z,8.08
2023-03-21T00:14:44.876Z,8.05
2023-03-21T00:18:12.062Z,8.01
2023-03-21T00:22:03.276Z,7.98
2023-03-21T00:25:29.492Z,7.96
2023-03-21T00:28:56.556Z,7.95
2023-03-21T00:32:24.662Z,7.94
2023-03-21T00:36:02.260Z,7.95
2023-03-21T00:39:30.114Z,7.94
2023-03-21T00:42:57.121Z,7.93
2023-03-21T00:46:27.596Z,7.93
2023-03-21T00:49:57.324Z,7.93
2023-03-21T00:53:24.811Z,7.93
2023-03-21T00:56:51.995Z,7.92
2023-03-21T01:00:21.391Z,7.91
2023-03-21T01:03:51.008Z,7.90
2023-03-21T01:07:18.283Z,7.88
2023-03-21T01:10:47.419Z,7.86
2023-03-21T01:14:22.522Z,7.85
2023-03-21T01:17:50.531Z,7.84
2023-03-21T01:21:18.222Z,7.85
2023-03-21T01:24:53.763Z,7.86
2023-03-21T01:28:22.872Z,7.85
2023-03-21T01:31:50.357Z,7.83
2023-03-21T01:35:18.204Z,7.82
2023-03-21T01:38:45.801Z,7.82
2023-03-21T01:42:16.303Z,7.81
2023-03-21T01:46:21.531Z,7.79
2023-03-21T01:50:09.044Z,7.78
2023-03-21T01:53:52.595Z,7.77
2023-03-21T01:57:35.341Z,7.77
2023-03-21T02:01:10.744Z,7.76
2023-03-21T02:04:56.131Z,7.76
2023-03-21T02:08:36.887Z,7.75
2023-03-21T02:12:10.463Z,7.73
2023-03-21T02:15:39.663Z,7.71
2023-03-21T02:19:52.917Z,7.69
2023-03-21T02:24:00.985Z,7.67
2023-03-21T02:27:30.322Z,7.65
2023-03-21T02:31:23.839Z,7.66
2023-03-21T02:35:16.051Z,7.64
2023-03-21T02:38:49.252Z,7.62
2023-03-21T02:42:22.910Z,7.60
2023-03-21T02:45:54.731Z,7.59
2023-03-21T02:49:28.603Z,7.57
2023-03-21T02:52:58.233Z,7.54
2023-03-21T02:56:28.700Z,7.54
2023-03-21T03:00:00.406Z,7.51
2023-03-21T03:03:38.946Z,7.49
2023-03-21T03:07:31.240Z,7.46
2023-03-21T03:11:13.364Z,7.44
2023-03-21T03:15:02.988Z,7.43
2023-03-21T03:18:42.918Z,7.41
2023-03-21T03:22:14.760Z,7.39
2023-03-21T03:25:49.132Z,7.36
2023-03-21T03:29:19.462Z,7.34
2023-03-21T03:32:50.261Z,7.33
2023-03-21T03:36:31.068Z,7.31
2023-03-21T03:40:05.826Z,7.27
2023-03-21T03:43:40.823Z,7.23
2023-03-21T03:47:17.426Z,7.18
2023-03-21T03:50:58.626Z,7.13
2023-03-21T03:54:38.282Z,7.09
2023-03-21T03:58:10.629Z,7.07
2023-03-21T04:01:47.096Z,7.04
2023-03-21T04:05:14.585Z,7.02
2023-03-21T04:08:41.993Z,7.00
2023-03-21T04:12:09.369Z,7.00
2023-03-21T04:15:37.443Z,6.98
2023-03-21T04:19:10.978Z,6.97
2023-03-21T04:22:38.084Z,6.96
2023-03-21T04:26:05.866Z,6.94
2023-03-21T04:29:39.675Z,6.94
2023-03-21T04:33:32.927Z,6.93
2023-03-21T04:36:59.973Z,6.93
2023-03-21T04:40:27.780Z,6.92
2023-03-21T04:43:56.565Z,6.93
2023-03-21T04:47:24.096Z,6.94
2023-03-21T04:50:51.658Z,6.94
2023-03-21T04:54:19.132Z,6.95
2023-03-21T04:57:46.186Z,6.96
2023-03-21T05:01:14.702Z,6.97
2023-03-21T05:04:42.487Z,6.97
2023-03-21T05:08:09.725Z,6.99
2023-03-21T05:11:38.796Z,6.99
2023-03-21T05:15:07.028Z,6.99
2023-03-21T05:18:38.693Z,7.00
2023-03-21T05:22:12.240Z,7.01
2023-03-21T05:25:40.339Z,7.02
2023-03-21T05:29:13.939Z,7.03
2023-03-21T05:32:42.724Z,7.04
2023-03-21T05:36:12.921Z,7.06
2023-03-21T05:39:40.401Z,7.09
2023-03-21T05:43:12.359Z,7.11
2023-03-21T05:46:40.018Z,7.15
2023-03-21T05:50:08.510Z,7.17
2023-03-21T05:53:36.401Z,7.21
2023-03-21T05:57:04.813Z,7.27
2023-03-21T06:00:58.746Z,7.35
2023-03-21T06:04:29.733Z,7.41
2023-03-21T06:07:57.026Z,7.45
2023-03-21T06:11:28.421Z,7.50
2023-03-21T06:15:14.098Z,7.58
2023-03-21T06:18:54.775Z,7.65
2023-03-21T06:22:34.953Z,7.69
2023-03-21T06:26:02.542Z,7.72
2023-03-21T06:29:31.339Z,7.76
2023-03-21T06:32:58.596Z,7.82
2023-03-21T06:36:26.279Z,7.88
2023-03-21T06:39:55.400Z,7.93
2023-03-21T06:43:23.177Z,7.98
2023-03-21T06:46:50.710Z,8.03
2023-03-21T06:50:19.420Z,8.07
2023-03-21T06:53:46.803Z,8.10
2023-03-21T06:57:25.436Z,8.15
2023-03-21T07:00:53.967Z,8.19
2023-03-21T07:04:21.449Z,8.24
2023-03-21T07:07:49.075Z,8.28
2023-03-21T07:11:16.390Z,8.30
2023-03-21T07:14:46.895Z,8.33
2023-03-21T07:18:13.937Z,8.36
2023-03-21T07:21:43.117Z,8.38
2023-03-21T07:25:12.109Z,8.40
2023-03-21T07:28:40.071Z,8.47
2023-03-21T07:32:07.811Z,8.54
2023-03-21T07:35:36.659Z,8.61
2023-03-21T07:39:05.120Z,8.66
2023-03-21T07:46:04.235Z,8.76
2023-03-21T07:49:31.577Z,8.82
2023-03-21T07:52:58.663Z,8.89
2023-03-21T07:56:25.870Z,8.98
2023-03-21T07:59:53.020Z,9.09
2023-03-21T08:03:20.253Z,9.19
2023-03-21T08:06:48.054Z,9.29
2023-03-21T08:10:17.687Z,9.35
2023-03-21T08:13:54.241Z,9.40
2023-03-21T08:17:24.253Z,9.42
2023-03-21T08:20:57.104Z,9.45
2023-03-21T08:24:24.434Z,9.47
2023-03-21T08:27:56.752Z,9.48
2023-03-21T08:31:25.801Z,9.50
2023-03-21T08:34:53.730Z,9.58
2023-03-21T08:38:21.618Z,9.68
2023-03-21T08:41:51.453Z,9.79
2023-03-21T08:45:20.683Z,9.90
2023-03-21T08:48:47.839Z,10.01
2023-03-21T08:52:15.792Z,10.11
2023-03-21T08:55:42.953Z,10.23
2023-03-21T08:59:10.320Z,10.33
2023-03-21T09:02:37.486Z,10.42
2023-03-21T09:06:04.859Z,10.50
2023-03-21T09:09:32.978Z,10.58
2023-03-21T09:13:00.202Z,10.74
2023-03-21T09:16:27.568Z,10.87
2023-03-21T09:19:54.745Z,11.03
2023-03-21T09:23:21.834Z,11.20
2023-03-21T09:26:51.730Z,11.38
2023-03-21T09:30:23.726Z,11.50
2023-03-21T09:33:53.289Z,11.65
2023-03-21T09:37:22.470Z,11.78
2023-03-21T09:41:05.092Z,11.93
2023-03-21T09:44:45.038Z,12.06
2023-03-21T09:48:31.465Z,12.21
2023-03-21T09:52:03.564Z,12.40
2023-03-21T09:55:35.107Z,12.58
2023-03-21T09:59:05.081Z,12.81
2023-03-21T10:02:40.232Z,13.00
2023-03-21T10:06:13.215Z,13.22
2023-03-21T10:09:42.292Z,13.37
2023-03-21T10:13:16.819Z,13.50
2023-03-21T10:16:48.010Z,13.61
2023-03-21T10:20:21.440Z,13.69
2023-03-21T10:23:52.084Z,13.82
2023-03-21T10:27:19.346Z,13.97
2023-03-21T10:30:50.229Z,14.08
2023-03-21T10:34:21.794Z,14.20
2023-03-21T10:37:49.748Z,14.28
2023-03-21T10:41:17.228Z,14.36
2023-03-21T10:44:50.384Z,14.50
2023-03-21T10:48:18.078Z,14.63
2023-03-21T10:51:47.303Z,14.77
2023-03-21T10:55:24.385Z,14.78
2023-03-21T10:58:53.975Z,14.86
2023-03-21T11:02:26.504Z,14.98
2023-03-21T11:05:58.015Z,15.07
2023-03-21T11:09:26.116Z,15.09
2023-03-21T11:12:57.482Z,15.14
2023-03-21T11:16:33.310Z,15.19
2023-03-21T11:20:05.085Z,15.27
2023-03-21T11:23:35.598Z,15.32
2023-03-21T11:27:07.536Z,15.34
2023-03-21T11:30:34.932Z,15.31
2023-03-21T11:34:06.859Z,15.30
2023-03-21T11:37:46.367Z,15.45
2023-03-21T11:41:23.560Z,15.77
2023-03-21T11:45:04.840Z,15.90
2023-03-21T11:48:33.355Z,16.01
2023-03-21T11:52:16.174Z,15.97
2023-03-21T11:55:55.418Z,15.91
2023-03-21T11:59:38.145Z,15.93
2023-03-21T12:03:48.602Z,15.89
2023-03-21T12:07:34.045Z,15.93
2023-03-21T12:11:09.681Z,15.94
2023-03-21T12:14:46.619Z,16.03
2023-03-21T12:18:27.145Z,16.10
2023-03-21T12:22:09.309Z,16.16
2023-03-21T12:25:41.687Z,16.20
2023-03-21T12:29:31.143Z,16.28
2023-03-21T12:33:15.736Z,16.38
2023-03-21T12:37:07.675Z,16.45
2023-03-21T12:40:51.189Z,16.54
2023-03-21T12:44:22.507Z,16.52
2023-03-21T12:47:57.227Z,16.56
2023-03-21T12:51:32.585Z,16.53
2023-03-21T12:55:04.820Z,16.42
2023-03-21T12:58:39.142Z,16.31
2023-03-21T13:02:18.984Z,16.12
2023-03-21T13:05:50.121Z,15.88
2023-03-21T13:09:36.740Z,15.68
2023-03-21T13:13:20.889Z,15.56
2023-03-21T13:16:56.274Z,15.43
2023-03-21T13:20:32.282Z,15.32
2023-03-21T13:24:19.702Z,15.25
2023-03-21T13:27:56.037Z,15.09
2023-03-21T13:31:32.024Z,14.98
2023-03-21T13:35:19.466Z,14.88
2023-03-21T13:38:54.071Z,14.78
2023-03-21T13:42:32.446Z,14.69
2023-03-21T13:46:09.398Z,14.56
2023-03-21T13:49:39.118Z,14.54
2023-03-21T13:53:19.578Z,14.48
2023-03-21T13:57:00.007Z,14.39
2023-03-21T14:00:35.692Z,14.43
2023-03-21T14:04:11.721Z,14.49
2023-03-21T14:07:44.233Z,14.53
2023-03-21T14:11:17.444Z,14.55
2023-03-21T14:14:48.630Z,14.56
2023-03-21T14:18:28.240Z,14.56
2023-03-21T14:22:14.571Z,14.48
2023-03-21T14:25:47.518Z,14.40
2023-03-21T14:29:26.772Z,14.36
2023-03-21T14:32:57.724Z,14.35
2023-03-21T14:36:28.722Z,14.31
2023-03-21T14:40:02.942Z,14.27
2023-03-21T14:43:34.103Z,14.14
2023-03-21T14:47:05.856Z,14.07
2023-03-21T14:50:39.877Z,14.02
2023-03-21T14:54:07.671Z,13.88
2023-03-21T14:57:35.931Z,13.76
2023-03-21T15:01:05.706Z,13.68
2023-03-21T15:04:34.144Z,13.62
2023-03-21T15:08:03.128Z,13.49
2023-03-21T15:11:35.495Z,13.39
2023-03-21T15:15:04.002Z,13.28
2023-03-21T15:18:34.255Z,13.19
2023-03-21T15:22:07.318Z,13.11
2023-03-21T15:25:38.636Z,13.02
2023-03-21T15:29:09.208Z,12.90
2023-03-21T15:32:39.138Z,12.71
2023-03-21T15:36:12.721Z,12.55
2023-03-21T15:39:39.959Z,12.42
2023-03-21T15:43:17.443Z,12.33
2023-03-21T15:46:48.254Z,12.26
2023-03-21T15:50:26.772Z,12.18
2023-03-21T15:53:55.891Z,12.04
2023-03-21T15:57:25.900Z,11.93
2023-03-21T16:00:55.668Z,11.83
2023-03-21T16:04:24.437Z,11.76
2023-03-21T16:07:52.247Z,11.69
2023-03-21T16:11:25.630Z,11.63
2023-03-21T16:14:53.201Z,11.54
2023-03-21T16:18:22.874Z,11.46
2023-03-21T16:21:48.559Z,11.39
2023-03-21T16:25:16.052Z,11.34
2023-03-21T16:28:43.713Z,11.29
2023-03-21T16:32:17.121Z,11.23
2023-03-21T16:35:44.341Z,11.16
2023-03-21T16:39:21.090Z,11.09
2023-03-21T16:42:48.402Z,11.02
2023-03-21T16:46:17.905Z,10.96
2023-03-21T16:49:47.963Z,10.88
2023-03-21T16:53:17.298Z,10.82
2023-03-21T16:56:47.561Z,10.77
2023-03-21T17:00:20.891Z,10.71
2023-03-21T17:03:48.770Z,10.66
2023-03-21T17:07:16.298Z,10.61
2023-03-21T17:10:44.146Z,10.58
2023-03-21T17:14:16.965Z,10.59
2023-03-21T17:17:44.744Z,10.55
2023-03-21T17:21:16.407Z,10.50
2023-03-21T17:24:43.821Z,10.45
2023-03-21T17:28:11.844Z,10.40
2023-03-21T17:31:40.297Z,10.36
2023-03-21T17:35:08.880Z,10.32
2023-03-21T17:38:39.431Z,10.28
2023-03-21T17:42:16.500Z,10.24
2023-03-21T17:45:44.311Z,10.19
2023-03-21T17:49:14.447Z,10.15
2023-03-21T17:52:42.125Z,10.13
2023-03-21T17:56:16.233Z,10.10
2023-03-21T17:59:44.198Z,10.08
2023-03-21T18:03:11.607Z,10.08
2023-03-21T18:06:39.070Z,10.07
2023-03-21T18:10:07.463Z,10.06
2023-03-21T18:13:35.767Z,10.05
2023-03-21T18:17:04.828Z,10.04
2023-03-21T18:24:22.341Z,10.02
2023-03-21T18:28:10.190Z,10.01
2023-03-21T18:31:38.809Z,10.00
2023-03-21T18:35:07.076Z,9.99
2023-03-21T18:38:34.250Z,9.98
2023-03-21T18:42:04.498Z,9.97
2023-03-21T18:45:34.782Z,9.95
2023-03-21T18:49:33.730Z,9.93
2023-03-21T18:52:49.756Z,9.91
2023-03-21T19:00:09.627Z,9.85
2023-03-21T19:03:37.790Z,9.83
2023-03-21T19:07:08.088Z,9.81
2023-03-21T19:10:37.860Z,9.79
2023-03-21T19:14:06.702Z,9.77
2023-03-21T19:21:22.024Z,9.70
2023-03-21T19:24:50.275Z,9.66
2023-03-21T19:28:17.542Z,9.63
2023-03-21T19:31:46.520Z,9.60
2023-03-21T19:35:15.179Z,9.58
2023-03-21T19:38:43.331Z,9.55
2023-03-21T19:42:16.948Z,9.53
2023-03-21T19:45:47.940Z,9.51
2023-03-21T19:49:20.152Z,9.50
2023-03-21T19:52:47.277Z,9.49
2023-03-21T19:56:22.495Z,9.48
2023-03-21T19:59:54.985Z,9.48
2023-03-21T20:03:23.013Z,9.48
2023-03-21T20:06:50.803Z,9.49
2023-03-21T20:10:18.724Z,9.48
2023-03-21T20:13:46.679Z,9.48
2023-03-21T20:17:17.136Z,9.48
2023-03-21T20:20:44.817Z,9.46
2023-03-21T20:24:13.074Z,9.45
2023-03-21T20:27:41.559Z,9.42
2023-03-21T20:31:09.838Z,9.38
2023-03-21T20:34:40.368Z,9.34
2023-03-21T20:38:09.734Z,9.31
2023-03-21T20:41:37.027Z,9.28
2023-03-21T20:45:04.034Z,9.26
2023-03-21T20:48:31.773Z,9.25
2023-03-21T20:55:47.314Z,9.21
2023-03-21T20:59:24.563Z,9.19
2023-03-21T21:02:54.090Z,9.17
2023-03-21T21:06:23.009Z,9.15
2023-03-21T21:09:51.430Z,9.13
2023-03-21T21:13:19.679Z,9.11
2023-03-21T21:16:47.857Z,9.10
2023-03-21T21:20:17.711Z,9.10
2023-03-21T21:23:43.609Z,9.09
2023-03-21T21:27:10.899Z,9.08
2023-03-21T21:30:41.376Z,9.08
2023-03-21T21:34:08.677Z,9.09
2023-03-21T21:37:35.862Z,9.09
2023-03-21T21:41:04.339Z,9.11
2023-03-21T21:44:31.653Z,9.12
2023-03-21T21:47:59.005Z,9.14
2023-03-21T21:51:27.187Z,9.15
2023-03-21T21:54:54.638Z,9.17
2023-03-21T21:58:22.058Z,9.18
2023-03-21T22:01:51.291Z,9.20
2023-03-21T22:05:19.527Z,9.21
2023-03-21T22:08:48.363Z,9.21
2023-03-21T22:12:16.919Z,9.22
2023-03-21T22:15:44.539Z,9.22
2023-03-21T22:19:12.263Z,9.23
2023-03-21T22:22:43.113Z,9.24
2023-03-21T22:26:11.947Z,9.26
2023-03-21T22:29:39.365Z,9.27
2023-03-21T22:33:09.988Z,9.28
2023-03-21T22:36:38.184Z,9.28
2023-03-21T22:40:08.329Z,9.29
2023-03-21T22:43:35.808Z,9.29
2023-03-21T22:47:03.071Z,9.29
2023-03-21T22:50:31.285Z,9.27
2023-03-21T22:53:59.342Z,9.28
2023-03-21T22:57:27.003Z,9.29
2023-03-21T23:00:54.336Z,9.29
2023-03-21T23:04:21.866Z,9.30
2023-03-21T23:07:49.212Z,9.31
2023-03-21T23:11:16.506Z,9.32
2023-03-21T23:14:43.560Z,9.33
2023-03-21T23:18:11.031Z,9.33
2023-03-21T23:21:38.477Z,9.33
2023-03-21T23:25:07.605Z,9.32
2023-03-21T23:28:34.824Z,9.30
2023-03-21T23:32:02.218Z,9.30
2023-03-21T23:35:30.031Z,9.29
2023-03-21T23:38:57.171Z,9.28
2023-03-21T23:42:25.189Z,9.28
2023-03-21T23:45:52.601Z,9.29
2023-03-21T23:49:20.684Z,9.31
2023-03-21T23:52:47.714Z,9.34
2023-03-21T23:56:19.769Z,9.35
2023-03-21T23:59:47.210Z,9.36
